createdAt,value
2018-05-25T00:01:21.333Z,68.06
2018-05-25T00:03:50.410Z,68.08
2018-05-25T00:06:19.323Z,67.99
2018-05-25T00:08:48.932Z,68.06
2018-05-25T00:11:18.139Z,68.21
2018-05-25T00:13:47.284Z,68.25
2018-05-25T00:16:16.118Z,68.35
2018-05-25T00:18:45.046Z,68.69
2018-05-25T00:21:13.922Z,68.79
2018-05-25T00:23:42.797Z,69.01
2018-05-25T00:26:11.739Z,68.99
2018-05-25T00:28:41.397Z,69.15
2018-05-25T00:31:11.310Z,69.52
2018-05-25T00:33:40.239Z,69.71
2018-05-25T00:36:09.298Z,69.79
2018-05-25T00:38:38.396Z,69.67
2018-05-25T00:41:08.862Z,69.97
2018-05-25T00:43:37.798Z,69.97
2018-05-25T00:46:06.670Z,70.11
2018-05-25T00:48:35.809Z,70.52
2018-05-25T00:51:04.909Z,70.61
2018-05-25T00:53:33.797Z,70.85
2018-05-25T00:56:04.427Z,71.42
2018-05-25T00:58:34.343Z,71.99
2018-05-25T01:01:03.250Z,72.50
2018-05-25T01:03:32.230Z,73.34
2018-05-25T01:06:01.354Z,74.13
2018-05-25T01:08:30.560Z,74.22
2018-05-25T01:11:00.441Z,74.14
2018-05-25T01:13:29.463Z,74.05
2018-05-25T01:15:58.434Z,74.24
2018-05-25T01:18:27.519Z,74.80
2018-05-25T01:20:56.414Z,75.66
2018-05-25T01:23:26.440Z,75.77
2018-05-25T01:25:57.869Z,75.87
2018-05-25T01:28:26.885Z,75.98
2018-05-25T01:30:55.840Z,76.20
2018-05-25T01:33:24.844Z,76.23
2018-05-25T01:35:54.413Z,76.74
2018-05-25T01:38:23.477Z,76.87
2018-05-25T01:40:53.289Z,77.13
2018-05-25T01:43:22.204Z,77.03
2018-05-25T01:45:51.380Z,77.15
2018-05-25T01:48:20.474Z,77.18
2018-05-25T01:50:49.582Z,77.33
2018-05-25T01:53:18.475Z,77.24
2018-05-25T01:55:48.276Z,77.86
2018-05-25T01:58:17.315Z,77.91
2018-05-25T02:00:46.267Z,78.07
2018-05-25T02:03:16.186Z,78.56
2018-05-25T02:05:45.377Z,78.61
2018-05-25T02:08:14.378Z,79.15
2018-05-25T02:10:44.215Z,79.19
2018-05-25T02:13:13.372Z,79.30
2018-05-25T02:15:42.467Z,79.32
2018-05-25T02:18:13.133Z,78.81
2018-05-25T02:20:41.948Z,78.47
2018-05-25T02:23:10.903Z,78.38
2018-05-25T02:25:39.897Z,78.08
2018-05-25T02:28:08.892Z,77.40
2018-05-25T02:30:37.789Z,76.67
2018-05-25T02:33:07.642Z,76.31
2018-05-25T02:35:36.732Z,76.43
2018-05-25T02:38:05.613Z,76.15
2018-05-25T02:40:34.797Z,76.04
2018-05-25T02:43:03.877Z,76.24
2018-05-25T02:45:32.796Z,76.46
2018-05-25T02:48:01.883Z,76.47
2018-05-25T02:50:31.175Z,76.46
2018-05-25T02:53:00.059Z,76.41
2018-05-25T02:55:29.087Z,76.06
2018-05-25T02:57:58.047Z,75.67
2018-05-25T03:00:27.012Z,75.17
2018-05-25T03:02:55.951Z,75.04
2018-05-25T03:05:25.035Z,74.94
2018-05-25T03:07:54.361Z,74.48
2018-05-25T03:10:23.645Z,74.31
2018-05-25T03:12:52.530Z,73.90
2018-05-25T03:15:22.343Z,73.47
2018-05-25T03:17:51.435Z,72.57
2018-05-25T03:20:20.352Z,72.31
2018-05-25T03:22:49.355Z,71.26
2018-05-25T03:25:23.840Z,70.71
2018-05-25T03:27:52.734Z,69.85
2018-05-25T03:30:21.664Z,69.83
2018-05-25T03:32:50.520Z,69.41
2018-05-25T03:35:19.517Z,69.71
2018-05-25T03:37:48.608Z,69.05
2018-05-25T03:40:18.064Z,68.35
2018-05-25T03:42:46.946Z,69.06
2018-05-25T03:45:16.043Z,69.04
2018-05-25T03:47:45.919Z,69.13
2018-05-25T03:50:15.116Z,70.97
2018-05-25T03:52:44.004Z,71.85
2018-05-25T03:55:13.002Z,71.47
2018-05-25T03:57:42.039Z,70.55
2018-05-25T04:00:22.974Z,70.67
2018-05-25T04:02:51.971Z,71.49
2018-05-25T04:05:20.858Z,71.48
2018-05-25T04:07:49.891Z,71.80
2018-05-25T04:10:18.751Z,71.49
2018-05-25T04:12:48.766Z,71.47
2018-05-25T04:15:21.140Z,71.19
2018-05-25T04:17:50.130Z,71.17
2018-05-25T04:20:20.045Z,71.29
2018-05-25T04:22:50.688Z,72.03
2018-05-25T04:25:19.672Z,72.25
2018-05-25T04:27:48.581Z,72.97
2018-05-25T04:30:20.025Z,73.71
2018-05-25T04:32:49.118Z,73.34
2018-05-25T04:35:18.080Z,73.39
2018-05-25T04:37:47.106Z,73.51
2018-05-25T04:40:16.206Z,73.54
2018-05-25T04:42:45.038Z,73.73
2018-05-25T04:45:15.006Z,73.94
2018-05-25T04:47:47.081Z,73.27
2018-05-25T04:50:18.934Z,72.74
2018-05-25T04:52:47.812Z,71.27
2018-05-25T04:55:16.924Z,70.51
2018-05-25T04:57:49.914Z,69.74
2018-05-25T05:00:18.858Z,68.39
2018-05-25T05:02:47.725Z,68.19
2018-05-25T05:07:51.422Z,67.45
2018-05-25T05:10:21.063Z,67.91
2018-05-25T05:12:50.025Z,67.11
2018-05-25T05:15:19.515Z,66.10
2018-05-25T05:17:49.339Z,66.49
2018-05-25T05:20:19.328Z,66.54
2018-05-25T05:22:48.252Z,67.56
2018-05-25T05:25:17.143Z,66.78
2018-05-25T05:27:46.274Z,67.19
2018-05-25T05:30:15.241Z,65.77
2018-05-25T05:32:44.472Z,66.05
2018-05-25T05:35:16.492Z,65.21
2018-05-25T05:37:45.586Z,64.98
2018-05-25T05:40:14.677Z,64.62
2018-05-25T05:42:44.609Z,64.23
2018-05-25T05:45:13.598Z,64.09
2018-05-25T05:47:42.597Z,64.54
2018-05-25T05:50:12.363Z,65.20
2018-05-25T05:52:41.287Z,66.08
2018-05-25T05:55:10.617Z,65.16
2018-05-25T05:57:40.443Z,65.85
2018-05-25T06:00:09.520Z,66.79
2018-05-25T06:02:38.512Z,67.77
2018-05-25T06:07:42.126Z,69.54
2018-05-25T06:10:11.215Z,70.05
2018-05-25T06:12:41.037Z,70.61
2018-05-25T06:15:10.126Z,71.53
2018-05-25T06:17:39.132Z,72.52
2018-05-25T06:20:08.120Z,73.02
2018-05-25T06:22:37.905Z,72.85
2018-05-25T06:25:06.929Z,72.39
2018-05-25T06:27:37.718Z,71.26
2018-05-25T06:30:07.914Z,71.27
2018-05-25T06:32:37.025Z,68.92
2018-05-25T06:35:06.086Z,66.57
2018-05-25T06:37:35.076Z,64.45
2018-05-25T06:40:04.175Z,64.25
2018-05-25T06:42:33.984Z,62.62
2018-05-25T06:45:02.979Z,60.53
2018-05-25T06:47:31.975Z,59.76
2018-05-25T06:50:01.058Z,58.60
2018-05-25T06:52:30.064Z,57.27
2018-05-25T06:54:59.161Z,59.22
2018-05-25T06:57:28.868Z,60.34
2018-05-25T06:59:57.764Z,59.90
2018-05-25T07:02:26.653Z,61.15
2018-05-25T07:04:55.855Z,61.95
2018-05-25T07:07:24.701Z,60.82
2018-05-25T07:09:53.734Z,55.19
2018-05-25T07:12:22.683Z,50.80
2018-05-25T07:14:51.627Z,50.30
2018-05-25T07:17:20.687Z,52.67
2018-05-25T07:19:51.359Z,53.20
2018-05-25T07:22:20.247Z,52.71
2018-05-25T07:24:49.352Z,51.42
2018-05-25T07:27:18.239Z,51.12
2018-05-25T07:29:47.234Z,49.39
2018-05-25T07:32:16.127Z,49.96
2018-05-25T07:34:45.218Z,49.95
2018-05-25T07:37:14.107Z,53.17
2018-05-25T07:39:42.982Z,50.69
2018-05-25T07:42:12.812Z,50.88
2018-05-25T07:44:41.816Z,51.04
2018-05-25T07:47:11.552Z,50.22
2018-05-25T07:49:40.546Z,50.64
2018-05-25T07:52:09.509Z,49.92
2018-05-25T07:54:38.605Z,49.03
2018-05-25T07:57:14.046Z,49.17
2018-05-25T07:59:44.277Z,49.34
2018-05-25T08:02:13.369Z,51.10
2018-05-25T08:04:42.374Z,52.36
2018-05-25T08:07:11.255Z,53.96
2018-05-25T08:09:40.248Z,55.74
2018-05-25T08:12:15.085Z,58.20
2018-05-25T08:14:44.055Z,58.04
2018-05-25T08:17:12.862Z,59.14
2018-05-25T08:19:41.749Z,59.08
2018-05-25T08:22:10.653Z,58.25
2018-05-25T08:24:40.055Z,59.01
2018-05-25T08:27:10.691Z,57.50
2018-05-25T08:29:39.583Z,55.83
2018-05-25T08:32:08.676Z,56.43
2018-05-25T08:34:40.634Z,56.83
2018-05-25T08:37:09.618Z,56.23
2018-05-25T08:39:38.629Z,56.67
2018-05-25T08:42:10.195Z,55.69
2018-05-25T08:44:39.215Z,56.30
2018-05-25T08:47:08.276Z,57.28
2018-05-25T08:49:40.195Z,58.48
2018-05-25T08:52:09.064Z,57.47
2018-05-25T08:54:37.818Z,56.34
2018-05-25T08:57:07.015Z,56.89
2018-05-25T08:59:36.060Z,59.09
2018-05-25T09:02:05.103Z,57.30
2018-05-25T09:04:34.922Z,57.61
2018-05-25T09:07:04.018Z,57.36
2018-05-25T09:09:33.073Z,57.92
2018-05-25T09:12:02.037Z,57.41
2018-05-25T09:14:31.408Z,57.01
2018-05-25T09:17:00.341Z,57.23
2018-05-25T09:19:30.219Z,57.41
2018-05-25T09:21:59.275Z,56.34
2018-05-25T09:24:28.202Z,57.88
2018-05-25T09:26:58.087Z,57.44
2018-05-25T09:29:26.905Z,56.12
2018-05-25T09:31:56.421Z,55.99
2018-05-25T09:34:31.973Z,57.13
2018-05-25T09:37:01.366Z,56.59
2018-05-25T09:39:31.177Z,57.23
2018-05-25T09:42:01.101Z,57.00
2018-05-25T09:44:29.984Z,56.29
2018-05-25T09:46:58.876Z,56.27
2018-05-25T09:49:28.742Z,55.75
2018-05-25T09:51:58.202Z,55.97
2018-05-25T09:54:27.600Z,57.44
2018-05-25T09:57:03.458Z,55.19
2018-05-25T09:59:32.349Z,54.69
2018-05-25T10:02:01.222Z,53.98
2018-05-25T10:07:04.950Z,52.98
2018-05-25T10:09:33.909Z,51.07
2018-05-25T10:12:02.937Z,51.50
2018-05-25T10:14:31.846Z,52.36
2018-05-25T10:17:00.838Z,52.41
2018-05-25T10:19:30.551Z,52.09
2018-05-25T10:21:59.527Z,52.23
2018-05-25T10:24:28.461Z,51.74
2018-05-25T10:29:31.853Z,50.23
2018-05-25T10:32:00.747Z,49.87
2018-05-25T10:34:29.730Z,49.73
2018-05-25T10:36:59.549Z,51.17
2018-05-25T10:39:28.449Z,51.34
2018-05-25T10:41:57.338Z,50.99
2018-05-25T10:44:26.330Z,50.72
2018-05-25T10:46:55.219Z,51.53
2018-05-25T10:49:24.110Z,51.78
2018-05-25T10:51:53.942Z,51.34
2018-05-25T10:54:22.743Z,52.81
2018-05-25T10:56:51.609Z,54.17
2018-05-25T10:59:20.709Z,53.85
2018-05-25T11:01:49.564Z,55.40
2018-05-25T11:04:18.390Z,58.64
2018-05-25T11:06:49.432Z,61.28
2018-05-25T11:09:18.732Z,64.08
2018-05-25T11:11:48.194Z,62.11
2018-05-25T11:14:17.327Z,60.89
2018-05-25T11:16:46.527Z,65.64
2018-05-25T11:19:15.419Z,63.24
2018-05-25T11:21:45.067Z,62.88
2018-05-25T11:24:14.510Z,63.75
2018-05-25T11:26:43.528Z,62.28
2018-05-25T11:29:12.528Z,63.91
2018-05-25T11:31:41.351Z,66.21
2018-05-25T11:34:10.202Z,65.41
2018-05-25T11:36:40.882Z,65.87
2018-05-25T11:39:09.833Z,65.21
2018-05-25T11:41:38.826Z,64.50
2018-05-25T11:44:07.856Z,64.02
2018-05-25T11:46:36.816Z,63.18
2018-05-25T11:49:06.023Z,64.49
2018-05-25T11:51:35.010Z,61.98
2018-05-25T11:54:04.312Z,64.77
2018-05-25T11:56:33.517Z,62.90
2018-05-25T11:59:03.464Z,62.59
2018-05-25T12:01:32.316Z,62.50
2018-05-25T12:04:01.314Z,60.03
2018-05-25T12:06:30.328Z,61.51
2018-05-25T12:08:59.299Z,61.29
2018-05-25T12:11:28.190Z,61.71
2018-05-25T12:13:58.255Z,62.50
2018-05-25T12:16:27.623Z,61.61
2018-05-25T12:18:56.800Z,60.36
2018-05-25T12:21:27.346Z,58.29
2018-05-25T12:23:56.338Z,59.42
2018-05-25T12:26:25.459Z,57.83
2018-05-25T12:28:54.515Z,56.52
2018-05-25T12:31:23.736Z,56.87
2018-05-25T12:33:52.722Z,57.94
2018-05-25T12:36:21.614Z,55.15
2018-05-25T12:38:50.818Z,55.84
2018-05-25T12:41:19.807Z,56.01
2018-05-25T12:43:49.617Z,56.66
2018-05-25T12:46:18.516Z,58.13
2018-05-25T12:48:47.402Z,57.73
2018-05-25T12:51:17.423Z,56.28
2018-05-25T12:53:46.358Z,56.61
2018-05-25T12:56:15.194Z,55.83
2018-05-25T12:58:45.032Z,55.92
2018-05-25T13:01:14.014Z,57.40
2018-05-25T13:03:42.924Z,57.48
2018-05-25T13:06:12.728Z,56.78
2018-05-25T13:08:42.023Z,56.42
2018-05-25T13:11:11.015Z,56.59
2018-05-25T13:13:40.825Z,55.08
2018-05-25T13:16:09.726Z,54.92
2018-05-25T13:18:38.694Z,55.01
2018-05-25T13:21:07.712Z,55.48
2018-05-25T13:23:37.215Z,54.79
2018-05-25T13:26:06.092Z,54.49
2018-05-25T13:28:35.304Z,54.03
2018-05-25T13:31:04.240Z,53.80
2018-05-25T13:33:33.121Z,53.76
2018-05-25T13:36:02.075Z,52.63
2018-05-25T13:38:30.974Z,53.93
2018-05-25T13:40:59.866Z,54.02
2018-05-25T13:43:29.509Z,54.44
2018-05-25T13:45:58.468Z,54.43
2018-05-25T13:48:27.337Z,54.36
2018-05-25T13:50:56.301Z,55.23
2018-05-25T13:53:25.250Z,53.77
2018-05-25T13:55:54.240Z,53.89
2018-05-25T13:58:23.325Z,54.82
2018-05-25T14:00:52.335Z,55.06
2018-05-25T14:03:22.475Z,54.63
2018-05-25T14:05:53.032Z,55.12
2018-05-25T14:08:21.980Z,55.34
2018-05-25T14:10:51.078Z,56.17
2018-05-25T14:13:20.050Z,55.59
2018-05-25T14:15:49.381Z,54.80
2018-05-25T14:18:18.185Z,54.95
2018-05-25T14:20:49.829Z,54.99
2018-05-25T14:23:18.670Z,54.73
2018-05-25T14:25:47.736Z,55.48
2018-05-25T14:28:16.996Z,55.45
2018-05-25T14:30:47.141Z,56.04
2018-05-25T14:33:17.150Z,55.30
2018-05-25T14:35:46.652Z,55.12
2018-05-25T14:38:15.672Z,57.02
2018-05-25T14:40:45.872Z,57.10
2018-05-25T14:43:14.799Z,56.12
2018-05-25T14:45:43.838Z,56.71
2018-05-25T14:48:12.752Z,57.26
2018-05-25T14:50:43.234Z,55.62
2018-05-25T14:53:12.012Z,57.12
2018-05-25T14:55:40.959Z,57.38
2018-05-25T14:58:13.848Z,55.90
2018-05-25T15:00:42.809Z,56.85
2018-05-25T15:03:12.797Z,57.37
2018-05-25T15:05:41.972Z,58.02
2018-05-25T15:08:10.961Z,58.04
2018-05-25T15:10:39.946Z,59.72
2018-05-25T15:13:10.474Z,58.31
2018-05-25T15:15:39.810Z,59.40
2018-05-25T15:18:08.808Z,59.93
2018-05-25T15:20:37.808Z,59.06
2018-05-25T15:23:06.864Z,58.34
2018-05-25T15:25:35.885Z,58.88
2018-05-25T15:28:05.187Z,59.66
2018-05-25T15:30:34.031Z,59.99
2018-05-25T15:33:03.024Z,59.50
2018-05-25T15:35:33.094Z,58.45
2018-05-25T15:38:01.949Z,58.08
2018-05-25T15:40:30.789Z,58.53
2018-05-25T15:42:59.734Z,56.50
2018-05-25T15:45:28.635Z,55.56
2018-05-25T15:47:57.454Z,55.20
2018-05-25T15:50:26.444Z,54.65
2018-05-25T15:52:55.404Z,55.39
2018-05-25T15:55:24.392Z,54.82
2018-05-25T15:57:54.141Z,54.80
2018-05-25T16:00:23.038Z,52.28
2018-05-25T16:02:51.904Z,51.21
2018-05-25T16:05:21.845Z,50.23
2018-05-25T16:07:50.936Z,48.70
2018-05-25T16:10:19.748Z,48.99
2018-05-25T16:12:48.898Z,49.05
2018-05-25T16:15:17.800Z,47.68
2018-05-25T16:17:46.685Z,46.92
2018-05-25T16:20:16.495Z,47.39
2018-05-25T16:22:45.383Z,46.55
2018-05-25T16:25:14.276Z,46.33
2018-05-25T16:27:43.173Z,46.75
2018-05-25T16:30:12.057Z,46.71
2018-05-25T16:32:41.053Z,47.75
2018-05-25T16:35:11.649Z,48.21
2018-05-25T16:37:40.587Z,48.27
2018-05-25T16:40:09.528Z,47.95
2018-05-25T16:42:38.562Z,46.35
2018-05-25T16:45:07.482Z,46.55
2018-05-25T16:47:36.774Z,46.49
2018-05-25T16:50:05.777Z,46.99
2018-05-25T16:52:34.580Z,46.98
2018-05-25T16:55:03.656Z,47.26
2018-05-25T16:57:32.631Z,47.56
2018-05-25T17:00:02.431Z,47.38
2018-05-25T17:02:31.546Z,47.54
2018-05-25T17:05:02.157Z,47.44
2018-05-25T17:07:31.170Z,48.60
2018-05-25T17:10:00.097Z,49.14
2018-05-25T17:12:29.199Z,49.88
2018-05-25T17:14:58.156Z,50.27
2018-05-25T17:17:27.548Z,50.59
2018-05-25T17:19:57.993Z,51.15
2018-05-25T17:22:26.978Z,52.08
2018-05-25T17:24:56.030Z,52.27
2018-05-25T17:27:25.020Z,52.64
2018-05-25T17:29:54.980Z,52.62
2018-05-25T17:32:23.982Z,52.75
2018-05-25T17:34:53.997Z,52.84
2018-05-25T17:37:24.220Z,52.73
2018-05-25T17:39:54.532Z,52.37
2018-05-25T17:42:23.644Z,52.93
2018-05-25T17:44:52.529Z,53.61
2018-05-25T17:47:21.308Z,54.23
2018-05-25T17:49:50.221Z,54.31
2018-05-25T17:52:20.032Z,53.94
2018-05-25T17:54:49.982Z,53.99
2018-05-25T17:57:18.919Z,53.92
2018-05-25T17:59:47.869Z,54.07
2018-05-25T18:02:16.719Z,54.50
2018-05-25T18:04:45.720Z,54.94
2018-05-25T18:07:14.604Z,55.65
2018-05-25T18:09:43.445Z,56.46
2018-05-25T18:12:18.258Z,57.34
2018-05-25T18:14:47.242Z,57.68
2018-05-25T18:17:16.253Z,58.01
2018-05-25T18:19:45.188Z,58.42
2018-05-25T18:22:14.082Z,58.94
2018-05-25T18:24:43.032Z,59.46
2018-05-25T18:27:12.755Z,59.73
2018-05-25T18:29:41.745Z,59.83
2018-05-25T18:32:12.347Z,60.05
2018-05-25T18:34:41.186Z,60.28
2018-05-25T18:37:11.408Z,60.61
2018-05-25T18:39:40.583Z,60.53
2018-05-25T18:42:09.540Z,60.45
2018-05-25T18:44:38.635Z,60.42
2018-05-25T18:47:07.552Z,60.52
2018-05-25T18:49:36.460Z,60.43
2018-05-25T18:52:05.573Z,60.37
2018-05-25T18:54:34.729Z,60.65
2018-05-25T18:57:06.502Z,60.48
2018-05-25T18:59:36.286Z,60.40
2018-05-25T19:02:05.281Z,60.49
2018-05-25T19:04:34.412Z,60.58
2018-05-25T19:07:03.273Z,60.64
2018-05-25T19:09:32.200Z,60.77
2018-05-25T19:12:01.155Z,60.93
2018-05-25T19:14:30.148Z,60.81
2018-05-25T19:16:59.045Z,61.08
2018-05-25T19:19:27.954Z,61.17
2018-05-25T19:21:57.424Z,61.13
2018-05-25T19:24:26.362Z,61.25
2018-05-25T19:26:59.831Z,61.49
2018-05-25T19:29:29.643Z,61.34
2018-05-25T19:31:59.459Z,61.55
2018-05-25T19:34:31.213Z,61.79
2018-05-25T19:37:01.037Z,62.19
2018-05-25T19:39:29.921Z,62.22
2018-05-25T19:41:59.872Z,62.50
2018-05-25T19:44:28.973Z,62.75
2018-05-25T19:46:59.091Z,62.79
2018-05-25T19:49:29.695Z,62.74
2018-05-25T19:51:58.677Z,63.01
2018-05-25T19:54:27.575Z,63.41
2018-05-25T19:56:56.670Z,63.52
2018-05-25T19:59:25.737Z,63.52
2018-05-25T20:01:54.493Z,63.73
2018-05-25T20:04:25.193Z,63.53
2018-05-25T20:06:54.293Z,63.70
2018-05-25T20:09:23.181Z,63.95
2018-05-25T20:11:54.724Z,64.41
2018-05-25T20:14:23.612Z,64.46
2018-05-25T20:16:52.531Z,64.82
2018-05-25T20:19:21.459Z,64.77
2018-05-25T20:21:50.921Z,64.72
2018-05-25T20:24:19.921Z,64.82
2018-05-25T20:26:50.501Z,64.91
2018-05-25T20:29:19.436Z,65.20
2018-05-25T20:31:48.431Z,65.18
2018-05-25T20:34:19.925Z,65.33
2018-05-25T20:36:49.426Z,65.47
2018-05-25T20:39:18.380Z,65.30
2018-05-25T20:44:21.481Z,65.01
2018-05-25T20:46:50.371Z,64.83
2018-05-25T20:49:19.422Z,64.97
2018-05-25T20:51:48.431Z,65.07
2018-05-25T20:54:17.243Z,64.90
2018-05-25T20:56:46.153Z,64.91
2018-05-25T20:59:15.988Z,64.81
2018-05-25T21:01:44.864Z,65.04
2018-05-25T21:04:13.707Z,65.32
2018-05-25T21:06:43.593Z,65.53
2018-05-25T21:09:12.769Z,65.82
2018-05-25T21:11:41.552Z,65.83
2018-05-25T21:14:10.582Z,66.11
2018-05-25T21:16:39.439Z,66.52
2018-05-25T21:19:09.384Z,66.67
2018-05-25T21:21:38.820Z,66.72
2018-05-25T21:24:07.739Z,66.75
2018-05-25T21:26:36.528Z,66.81
2018-05-25T21:29:06.393Z,66.64
2018-05-25T21:31:35.501Z,66.83
2018-05-25T21:34:04.450Z,67.00
2018-05-25T21:36:34.422Z,66.93
2018-05-25T21:39:03.589Z,66.63
2018-05-25T21:41:32.550Z,66.60
2018-05-25T21:44:04.417Z,66.57
2018-05-25T21:46:33.314Z,66.55
2018-05-25T21:49:02.409Z,66.22
2018-05-25T21:51:32.112Z,66.25
2018-05-25T21:54:01.031Z,66.38
2018-05-25T21:56:29.998Z,66.39
2018-05-25T21:58:59.894Z,66.05
2018-05-25T22:01:28.824Z,65.88
2018-05-25T22:03:57.699Z,65.79
2018-05-25T22:06:26.692Z,65.38
2018-05-25T22:08:55.652Z,65.45
2018-05-25T22:11:24.672Z,65.41
2018-05-25T22:13:53.573Z,65.11
2018-05-25T22:16:22.494Z,65.36
2018-05-25T22:18:51.537Z,65.32
2018-05-25T22:21:20.720Z,65.34
2018-05-25T22:23:49.655Z,65.87
2018-05-25T22:26:18.647Z,66.06
2018-05-25T22:31:21.348Z,66.64
2018-05-25T22:33:50.241Z,67.17
2018-05-25T22:36:20.028Z,67.43
2018-05-25T22:38:49.147Z,67.80
2018-05-25T22:41:18.148Z,67.98
2018-05-25T22:43:59.711Z,68.47
2018-05-25T22:46:46.231Z,68.81
2018-05-25T22:49:32.842Z,68.69
2018-05-25T22:52:31.330Z,68.91
2018-05-25T22:55:00.989Z,68.74
2018-05-25T22:57:29.934Z,68.39
2018-05-25T22:59:58.926Z,67.95
2018-05-25T23:02:28.605Z,67.69
2018-05-25T23:04:58.653Z,66.97
2018-05-25T23:07:27.848Z,66.75
2018-05-25T23:09:56.812Z,66.43
2018-05-25T23:12:25.848Z,66.77
2018-05-25T23:14:54.736Z,66.27
2018-05-25T23:17:23.828Z,65.89
2018-05-25T23:19:55.119Z,65.86
2018-05-25T23:22:24.179Z,65.60
2018-05-25T23:24:54.205Z,65.09
2018-05-25T23:27:23.204Z,64.99
2018-05-25T23:29:52.118Z,64.93
2018-05-25T23:32:21.275Z,65.08
2018-05-25T23:34:50.118Z,65.65
2018-05-25T23:37:20.212Z,65.65
2018-05-25T23:39:49.325Z,66.12
2018-05-25T23:42:19.202Z,66.07
2018-05-25T23:44:48.396Z,65.87
2018-05-25T23:47:17.699Z,65.64
2018-05-25T23:49:47.619Z,65.71
2018-05-25T23:52:16.612Z,66.55
2018-05-25T23:54:47.452Z,67.86
2018-05-25T23:57:16.366Z,69.33
2018-05-25T23:59:45.329Z,70.69
